sensor_id;sensor_type;location;lat;lon;timestamp;P1;durP1;ratioP1;P2;durP2;ratioP2
6280;SDS011;3173;48.204;11.612;2022-08-30T00:00:21;11.30;;;9.13;;
6280;SDS011;3173;48.204;11.612;2022-08-30T00:03:07;11.73;;;8.80;;
6280;SDS011;3173;48.204;11.612;2022-08-30T00:05:33;16.53;;;9.23;;
6280;SDS011;3173;48.204;11.612;2022-08-30T00:08:00;15.70;;;9.90;;
6280;SDS011;3173;48.204;11.612;2022-08-30T00:10:26;14.40;;;10.60;;
6280;SDS011;3173;48.204;11.612;2022-08-30T00:12:53;16.00;;;10.77;;
6280;SDS011;3173;48.204;11.612;2022-08-30T00:15:19;11.63;;;9.33;;
6280;SDS011;3173;48.204;11.612;2022-08-30T00:17:45;15.33;;;10.27;;
6280;SDS011;3173;48.204;11.612;2022-08-30T00:20:13;13.00;;;10.40;;
6280;SDS011;3173;48.204;11.612;2022-08-30T00:22:39;13.37;;;10.37;;
6280;SDS011;3173;48.204;11.612;2022-08-30T00:25:06;13.97;;;9.90;;
6280;SDS011;3173;48.204;11.612;2022-08-30T00:27:32;15.40;;;9.90;;
6280;SDS011;3173;48.204;11.612;2022-08-30T00:29:58;12.27;;;9.70;;
6280;SDS011;3173;48.204;11.612;2022-08-30T00:32:24;13.20;;;10.23;;
6280;SDS011;3173;48.204;11.612;2022-08-30T00:34:51;12.70;;;9.77;;
6280;SDS011;3173;48.204;11.612;2022-08-30T00:37:17;13.97;;;10.10;;
6280;SDS011;3173;48.204;11.612;2022-08-30T00:39:43;12.37;;;9.80;;
6280;SDS011;3173;48.204;11.612;2022-08-30T00:42:10;12.33;;;10.00;;
6280;SDS011;3173;48.204;11.612;2022-08-30T00:44:36;12.63;;;10.43;;
6280;SDS011;3173;48.204;11.612;2022-08-30T00:47:03;18.90;;;11.20;;
6280;SDS011;3173;48.204;11.612;2022-08-30T00:49:29;15.27;;;10.37;;
6280;SDS011;3173;48.204;11.612;2022-08-30T00:51:55;15.90;;;12.17;;
6280;SDS011;3173;48.204;11.612;2022-08-30T00:54:22;14.83;;;11.57;;
6280;SDS011;3173;48.204;11.612;2022-08-30T00:56:49;13.80;;;11.17;;
6280;SDS011;3173;48.204;11.612;2022-08-30T00:59:16;16.93;;;11.60;;
6280;SDS011;3173;48.204;11.612;2022-08-30T01:01:42;15.03;;;11.80;;
6280;SDS011;3173;48.204;11.612;2022-08-30T01:04:08;14.77;;;10.70;;
6280;SDS011;3173;48.204;11.612;2022-08-30T01:06:34;18.40;;;10.73;;
6280;SDS011;3173;48.204;11.612;2022-08-30T01:09:01;16.83;;;11.40;;
6280;SDS011;3173;48.204;11.612;2022-08-30T01:11:27;18.77;;;11.20;;
6280;SDS011;3173;48.204;11.612;2022-08-30T01:13:54;13.83;;;10.70;;
6280;SDS011;3173;48.204;11.612;2022-08-30T01:16:21;12.23;;;9.90;;
6280;SDS011;3173;48.204;11.612;2022-08-30T01:18:47;13.57;;;10.63;;
6280;SDS011;3173;48.204;11.612;2022-08-30T01:23:47;13.03;;;9.50;;
6280;SDS011;3173;48.204;11.612;2022-08-30T01:26:14;13.90;;;10.03;;
6280;SDS011;3173;48.204;11.612;2022-08-30T01:28:41;12.23;;;9.63;;
6280;SDS011;3173;48.204;11.612;2022-08-30T01:31:08;15.63;;;11.03;;
6280;SDS011;3173;48.204;11.612;2022-08-30T01:36:38;16.57;;;10.53;;
6280;SDS011;3173;48.204;11.612;2022-08-30T01:39:06;13.37;;;11.07;;
6280;SDS011;3173;48.204;11.612;2022-08-30T01:41:33;15.30;;;9.77;;
6280;SDS011;3173;48.204;11.612;2022-08-30T01:44:01;16.30;;;10.80;;
6280;SDS011;3173;48.204;11.612;2022-08-30T01:46:29;12.87;;;9.37;;
6280;SDS011;3173;48.204;11.612;2022-08-30T01:48:56;14.60;;;10.27;;
6280;SDS011;3173;48.204;11.612;2022-08-30T01:51:24;12.83;;;10.20;;
6280;SDS011;3173;48.204;11.612;2022-08-30T01:53:50;16.33;;;9.53;;
6280;SDS011;3173;48.204;11.612;2022-08-30T01:56:17;12.47;;;9.60;;
6280;SDS011;3173;48.204;11.612;2022-08-30T01:58:43;13.73;;;9.93;;
6280;SDS011;3173;48.204;11.612;2022-08-30T02:01:10;11.87;;;9.57;;
6280;SDS011;3173;48.204;11.612;2022-08-30T02:03:37;11.10;;;9.23;;
6280;SDS011;3173;48.204;11.612;2022-08-30T02:06:08;15.07;;;9.40;;
6280;SDS011;3173;48.204;11.612;2022-08-30T02:08:35;11.43;;;9.20;;
6280;SDS011;3173;48.204;11.612;2022-08-30T02:11:02;14.87;;;9.67;;
6280;SDS011;3173;48.204;11.612;2022-08-30T02:13:28;13.93;;;10.40;;
6280;SDS011;3173;48.204;11.612;2022-08-30T02:15:55;16.03;;;10.27;;
6280;SDS011;3173;48.204;11.612;2022-08-30T02:18:21;15.33;;;9.60;;
6280;SDS011;3173;48.204;11.612;2022-08-30T02:20:47;13.07;;;10.50;;
6280;SDS011;3173;48.204;11.612;2022-08-30T02:23:14;14.13;;;10.93;;
6280;SDS011;3173;48.204;11.612;2022-08-30T02:25:39;12.63;;;9.13;;
6280;SDS011;3173;48.204;11.612;2022-08-30T02:28:06;11.93;;;9.87;;
6280;SDS011;3173;48.204;11.612;2022-08-30T02:30:32;12.30;;;9.67;;
6280;SDS011;3173;48.204;11.612;2022-08-30T02:32:58;14.73;;;8.80;;
6280;SDS011;3173;48.204;11.612;2022-08-30T02:35:24;12.47;;;8.50;;
6280;SDS011;3173;48.204;11.612;2022-08-30T02:37:50;11.63;;;8.90;;
6280;SDS011;3173;48.204;11.612;2022-08-30T02:40:16;10.97;;;8.73;;
6280;SDS011;3173;48.204;11.612;2022-08-30T02:42:42;10.93;;;8.80;;
6280;SDS011;3173;48.204;11.612;2022-08-30T02:45:09;12.87;;;10.20;;
6280;SDS011;3173;48.204;11.612;2022-08-30T02:47:35;11.33;;;9.30;;
6280;SDS011;3173;48.204;11.612;2022-08-30T02:50:03;10.70;;;8.57;;
6280;SDS011;3173;48.204;11.612;2022-08-30T02:52:29;15.40;;;10.00;;
6280;SDS011;3173;48.204;11.612;2022-08-30T02:54:55;12.83;;;9.93;;
6280;SDS011;3173;48.204;11.612;2022-08-30T02:57:21;14.37;;;10.43;;
6280;SDS011;3173;48.204;11.612;2022-08-30T02:59:47;14.60;;;9.67;;
6280;SDS011;3173;48.204;11.612;2022-08-30T03:02:13;12.63;;;9.47;;
6280;SDS011;3173;48.204;11.612;2022-08-30T03:04:39;16.27;;;9.97;;
6280;SDS011;3173;48.204;11.612;2022-08-30T03:07:08;17.97;;;11.13;;
6280;SDS011;3173;48.204;11.612;2022-08-30T03:09:34;13.70;;;9.40;;
6280;SDS011;3173;48.204;11.612;2022-08-30T03:12:01;14.50;;;9.20;;
6280;SDS011;3173;48.204;11.612;2022-08-30T03:14:27;16.20;;;9.97;;
6280;SDS011;3173;48.204;11.612;2022-08-30T03:16:53;13.00;;;8.80;;
6280;SDS011;3173;48.204;11.612;2022-08-30T03:19:19;13.90;;;9.77;;
6280;SDS011;3173;48.204;11.612;2022-08-30T03:21:45;12.27;;;9.87;;
6280;SDS011;3173;48.204;11.612;2022-08-30T03:24:11;14.63;;;9.20;;
6280;SDS011;3173;48.204;11.612;2022-08-30T03:26:37;14.90;;;10.30;;
6280;SDS011;3173;48.204;11.612;2022-08-30T03:29:03;16.73;;;10.00;;
6280;SDS011;3173;48.204;11.612;2022-08-30T03:31:29;15.37;;;10.03;;
6280;SDS011;3173;48.204;11.612;2022-08-30T03:33:55;14.83;;;10.87;;
6280;SDS011;3173;48.204;11.612;2022-08-30T03:36:21;14.80;;;10.67;;
6280;SDS011;3173;48.204;11.612;2022-08-30T03:38:47;15.13;;;9.73;;
6280;SDS011;3173;48.204;11.612;2022-08-30T03:41:13;19.00;;;10.43;;
6280;SDS011;3173;48.204;11.612;2022-08-30T03:43:41;12.93;;;9.30;;
6280;SDS011;3173;48.204;11.612;2022-08-30T03:46:07;13.30;;;10.47;;
6280;SDS011;3173;48.204;11.612;2022-08-30T03:48:33;14.63;;;10.27;;
6280;SDS011;3173;48.204;11.612;2022-08-30T03:50:59;18.73;;;10.40;;
6280;SDS011;3173;48.204;11.612;2022-08-30T03:53:25;13.80;;;9.93;;
6280;SDS011;3173;48.204;11.612;2022-08-30T03:55:51;13.53;;;9.90;;
6280;SDS011;3173;48.204;11.612;2022-08-30T03:58:17;14.37;;;10.57;;
6280;SDS011;3173;48.204;11.612;2022-08-30T04:00:42;15.97;;;11.60;;
6280;SDS011;3173;48.204;11.612;2022-08-30T04:03:08;17.43;;;11.17;;
6280;SDS011;3173;48.204;11.612;2022-08-30T04:05:34;15.63;;;12.20;;
6280;SDS011;3173;48.204;11.612;2022-08-30T04:08:00;15.93;;;12.20;;
6280;SDS011;3173;48.204;11.612;2022-08-30T04:10:26;17.73;;;11.90;;
6280;SDS011;3173;48.204;11.612;2022-08-30T04:12:52;16.83;;;11.83;;
6280;SDS011;3173;48.204;11.612;2022-08-30T04:15:18;15.83;;;12.00;;
6280;SDS011;3173;48.204;11.612;2022-08-30T04:17:44;18.30;;;10.97;;
6280;SDS011;3173;48.204;11.612;2022-08-30T04:20:11;16.97;;;11.40;;
6280;SDS011;3173;48.204;11.612;2022-08-30T04:22:37;17.10;;;11.67;;
6280;SDS011;3173;48.204;11.612;2022-08-30T04:25:03;13.70;;;10.00;;
6280;SDS011;3173;48.204;11.612;2022-08-30T04:27:29;15.50;;;11.00;;
6280;SDS011;3173;48.204;11.612;2022-08-30T04:29:57;17.37;;;11.53;;
6280;SDS011;3173;48.204;11.612;2022-08-30T04:32:23;16.27;;;11.03;;
6280;SDS011;3173;48.204;11.612;2022-08-30T04:34:49;19.53;;;11.97;;
6280;SDS011;3173;48.204;11.612;2022-08-30T04:37:14;14.33;;;10.73;;
6280;SDS011;3173;48.204;11.612;2022-08-30T04:39:40;15.73;;;11.60;;
6280;SDS011;3173;48.204;11.612;2022-08-30T04:42:07;13.27;;;10.67;;
6280;SDS011;3173;48.204;11.612;2022-08-30T04:44:35;14.57;;;11.30;;
6280;SDS011;3173;48.204;11.612;2022-08-30T04:47:01;12.70;;;9.80;;
6280;SDS011;3173;48.204;11.612;2022-08-30T04:49:27;15.30;;;10.83;;
6280;SDS011;3173;48.204;11.612;2022-08-30T04:51:53;17.53;;;10.93;;
6280;SDS011;3173;48.204;11.612;2022-08-30T04:54:19;13.50;;;10.80;;
6280;SDS011;3173;48.204;11.612;2022-08-30T04:56:45;14.40;;;10.83;;
6280;SDS011;3173;48.204;11.612;2022-08-30T04:59:11;15.57;;;10.97;;
6280;SDS011;3173;48.204;11.612;2022-08-30T05:01:37;14.00;;;10.50;;
6280;SDS011;3173;48.204;11.612;2022-08-30T05:04:04;15.00;;;10.17;;
6280;SDS011;3173;48.204;11.612;2022-08-30T05:06:31;15.03;;;11.07;;
6280;SDS011;3173;48.204;11.612;2022-08-30T05:08:57;14.60;;;9.87;;
6280;SDS011;3173;48.204;11.612;2022-08-30T05:11:25;14.13;;;10.53;;
6280;SDS011;3173;48.204;11.612;2022-08-30T05:13:52;16.10;;;10.53;;
6280;SDS011;3173;48.204;11.612;2022-08-30T05:16:17;18.03;;;10.90;;
6280;SDS011;3173;48.204;11.612;2022-08-30T05:18:44;15.30;;;11.10;;
6280;SDS011;3173;48.204;11.612;2022-08-30T05:21:29;13.57;;;10.80;;
6280;SDS011;3173;48.204;11.612;2022-08-30T05:23:56;18.83;;;12.03;;
6280;SDS011;3173;48.204;11.612;2022-08-30T05:26:23;16.87;;;10.67;;
6280;SDS011;3173;48.204;11.612;2022-08-30T05:28:49;22.57;;;11.70;;
6280;SDS011;3173;48.204;11.612;2022-08-30T05:31:16;15.60;;;11.03;;
6280;SDS011;3173;48.204;11.612;2022-08-30T05:33:43;22.40;;;11.87;;
6280;SDS011;3173;48.204;11.612;2022-08-30T05:36:09;17.40;;;11.07;;
6280;SDS011;3173;48.204;11.612;2022-08-30T05:38:36;18.13;;;11.70;;
6280;SDS011;3173;48.204;11.612;2022-08-30T05:41:02;16.10;;;11.87;;
6280;SDS011;3173;48.204;11.612;2022-08-30T05:43:28;15.30;;;10.30;;
6280;SDS011;3173;48.204;11.612;2022-08-30T05:45:58;17.53;;;11.00;;
6280;SDS011;3173;48.204;11.612;2022-08-30T05:48:24;13.90;;;11.00;;
6280;SDS011;3173;48.204;11.612;2022-08-30T05:50:59;14.40;;;10.70;;
6280;SDS011;3173;48.204;11.612;2022-08-30T05:53:25;16.00;;;12.50;;
6280;SDS011;3173;48.204;11.612;2022-08-30T05:55:51;17.30;;;10.77;;
6280;SDS011;3173;48.204;11.612;2022-08-30T05:58:17;14.80;;;11.53;;
6280;SDS011;3173;48.204;11.612;2022-08-30T06:00:43;13.50;;;9.90;;
6280;SDS011;3173;48.204;11.612;2022-08-30T06:03:09;17.80;;;11.10;;
6280;SDS011;3173;48.204;11.612;2022-08-30T06:05:36;18.63;;;12.13;;
6280;SDS011;3173;48.204;11.612;2022-08-30T06:08:03;16.00;;;11.47;;
6280;SDS011;3173;48.204;11.612;2022-08-30T06:10:29;20.10;;;10.00;;
6280;SDS011;3173;48.204;11.612;2022-08-30T06:12:55;15.40;;;10.90;;
6280;SDS011;3173;48.204;11.612;2022-08-30T06:15:21;18.27;;;11.43;;
6280;SDS011;3173;48.204;11.612;2022-08-30T06:17:47;17.43;;;10.93;;
6280;SDS011;3173;48.204;11.612;2022-08-30T06:20:13;17.90;;;10.63;;
6280;SDS011;3173;48.204;11.612;2022-08-30T06:22:42;14.80;;;10.90;;
6280;SDS011;3173;48.204;11.612;2022-08-30T06:25:08;13.50;;;10.07;;
6280;SDS011;3173;48.204;11.612;2022-08-30T06:27:34;14.10;;;10.70;;
6280;SDS011;3173;48.204;11.612;2022-08-30T06:30:00;15.30;;;9.10;;
6280;SDS011;3173;48.204;11.612;2022-08-30T06:32:26;16.60;;;11.10;;
6280;SDS011;3173;48.204;11.612;2022-08-30T06:34:52;16.00;;;10.03;;
6280;SDS011;3173;48.204;11.612;2022-08-30T06:37:18;16.53;;;10.93;;
6280;SDS011;3173;48.204;11.612;2022-08-30T06:39:44;12.90;;;10.60;;
6280;SDS011;3173;48.204;11.612;2022-08-30T06:42:10;16.00;;;9.87;;
6280;SDS011;3173;48.204;11.612;2022-08-30T06:44:36;15.77;;;10.30;;
6280;SDS011;3173;48.204;11.612;2022-08-30T06:47:03;14.60;;;8.90;;
6280;SDS011;3173;48.204;11.612;2022-08-30T06:49:29;17.53;;;9.97;;
6280;SDS011;3173;48.204;11.612;2022-08-30T06:51:55;15.37;;;9.90;;
6280;SDS011;3173;48.204;11.612;2022-08-30T06:54:21;12.97;;;9.40;;
6280;SDS011;3173;48.204;11.612;2022-08-30T06:56:47;12.50;;;8.73;;
6280;SDS011;3173;48.204;11.612;2022-08-30T06:59:13;13.97;;;9.90;;
6280;SDS011;3173;48.204;11.612;2022-08-30T07:01:39;13.30;;;9.33;;
6280;SDS011;3173;48.204;11.612;2022-08-30T07:04:05;12.67;;;9.80;;
6280;SDS011;3173;48.204;11.612;2022-08-30T07:06:31;15.40;;;9.83;;
6280;SDS011;3173;48.204;11.612;2022-08-30T07:08:57;11.37;;;8.17;;
6280;SDS011;3173;48.204;11.612;2022-08-30T07:11:24;11.97;;;9.20;;
6280;SDS011;3173;48.204;11.612;2022-08-30T07:13:50;13.03;;;9.33;;
6280;SDS011;3173;48.204;11.612;2022-08-30T07:16:16;11.40;;;9.60;;
6280;SDS011;3173;48.204;11.612;2022-08-30T07:18:42;13.83;;;9.53;;
6280;SDS011;3173;48.204;11.612;2022-08-30T07:21:15;10.60;;;9.37;;
6280;SDS011;3173;48.204;11.612;2022-08-30T07:23:43;13.23;;;8.90;;
6280;SDS011;3173;48.204;11.612;2022-08-30T07:26:10;10.37;;;9.27;;
6280;SDS011;3173;48.204;11.612;2022-08-30T07:28:37;12.63;;;8.90;;
6280;SDS011;3173;48.204;11.612;2022-08-30T07:31:03;11.87;;;9.00;;
6280;SDS011;3173;48.204;11.612;2022-08-30T07:33:29;11.20;;;8.97;;
6280;SDS011;3173;48.204;11.612;2022-08-30T07:35:55;11.60;;;8.40;;
6280;SDS011;3173;48.204;11.612;2022-08-30T07:38:23;12.83;;;8.30;;
6280;SDS011;3173;48.204;11.612;2022-08-30T07:40:49;13.33;;;8.20;;
6280;SDS011;3173;48.204;11.612;2022-08-30T07:43:15;12.80;;;7.93;;
6280;SDS011;3173;48.204;11.612;2022-08-30T07:45:41;11.90;;;8.13;;
6280;SDS011;3173;48.204;11.612;2022-08-30T07:48:07;14.70;;;8.50;;
6280;SDS011;3173;48.204;11.612;2022-08-30T07:50:35;10.90;;;7.90;;
6280;SDS011;3173;48.204;11.612;2022-08-30T07:53:01;14.73;;;8.33;;
6280;SDS011;3173;48.204;11.612;2022-08-30T07:55:27;10.83;;;8.90;;
6280;SDS011;3173;48.204;11.612;2022-08-30T07:57:53;11.23;;;6.97;;
6280;SDS011;3173;48.204;11.612;2022-08-30T08:00:19;10.17;;;7.97;;
6280;SDS011;3173;48.204;11.612;2022-08-30T08:02:45;9.60;;;7.70;;
6280;SDS011;3173;48.204;11.612;2022-08-30T08:05:11;11.63;;;7.50;;
6280;SDS011;3173;48.204;11.612;2022-08-30T08:07:38;9.40;;;7.47;;
6280;SDS011;3173;48.204;11.612;2022-08-30T08:10:04;8.73;;;6.97;;
6280;SDS011;3173;48.204;11.612;2022-08-30T08:12:30;8.77;;;7.20;;
6280;SDS011;3173;48.204;11.612;2022-08-30T08:14:56;8.70;;;7.47;;
6280;SDS011;3173;48.204;11.612;2022-08-30T08:17:22;10.93;;;7.30;;
6280;SDS011;3173;48.204;11.612;2022-08-30T08:19:48;8.87;;;6.83;;
6280;SDS011;3173;48.204;11.612;2022-08-30T08:22:14;14.30;;;7.40;;
6280;SDS011;3173;48.204;11.612;2022-08-30T08:24:40;9.03;;;6.83;;
6280;SDS011;3173;48.204;11.612;2022-08-30T08:27:06;8.27;;;6.50;;
6280;SDS011;3173;48.204;11.612;2022-08-30T08:29:32;8.83;;;6.93;;
6280;SDS011;3173;48.204;11.612;2022-08-30T08:31:58;8.93;;;6.63;;
6280;SDS011;3173;48.204;11.612;2022-08-30T08:34:25;7.80;;;6.93;;
6280;SDS011;3173;48.204;11.612;2022-08-30T08:36:51;6.93;;;6.23;;
6280;SDS011;3173;48.204;11.612;2022-08-30T08:39:17;9.07;;;7.43;;
6280;SDS011;3173;48.204;11.612;2022-08-30T08:49:30;10.80;;;7.73;;
6280;SDS011;3173;48.204;11.612;2022-08-30T08:51:57;10.40;;;7.53;;
6280;SDS011;3173;48.204;11.612;2022-08-30T08:54:50;12.67;;;7.47;;
6280;SDS011;3173;48.204;11.612;2022-08-30T08:57:17;8.97;;;7.27;;
6280;SDS011;3173;48.204;11.612;2022-08-30T08:59:43;8.60;;;7.53;;
6280;SDS011;3173;48.204;11.612;2022-08-30T09:05:02;8.17;;;5.60;;
6280;SDS011;3173;48.204;11.612;2022-08-30T09:07:32;6.13;;;5.13;;
6280;SDS011;3173;48.204;11.612;2022-08-30T09:10:00;13.40;;;5.80;;
6280;SDS011;3173;48.204;11.612;2022-08-30T09:12:26;11.57;;;5.97;;
6280;SDS011;3173;48.204;11.612;2022-08-30T09:14:54;11.00;;;5.70;;
6280;SDS011;3173;48.204;11.612;2022-08-30T09:17:20;6.60;;;5.10;;
6280;SDS011;3173;48.204;11.612;2022-08-30T09:22:20;7.23;;;4.20;;
6280;SDS011;3173;48.204;11.612;2022-08-30T09:24:52;9.40;;;5.73;;
6280;SDS011;3173;48.204;11.612;2022-08-30T09:32:22;7.40;;;4.73;;
6280;SDS011;3173;48.204;11.612;2022-08-30T09:34:49;4.90;;;4.33;;
6280;SDS011;3173;48.204;11.612;2022-08-30T09:37:25;5.80;;;5.03;;
6280;SDS011;3173;48.204;11.612;2022-08-30T09:39:51;9.47;;;5.40;;
6280;SDS011;3173;48.204;11.612;2022-08-30T09:42:21;4.70;;;4.10;;
6280;SDS011;3173;48.204;11.612;2022-08-30T09:44:51;6.33;;;5.20;;
6280;SDS011;3173;48.204;11.612;2022-08-30T09:47:27;7.40;;;4.77;;
6280;SDS011;3173;48.204;11.612;2022-08-30T09:50:10;7.23;;;4.57;;
6280;SDS011;3173;48.204;11.612;2022-08-30T09:55:23;5.20;;;4.60;;
6280;SDS011;3173;48.204;11.612;2022-08-30T10:00:22;5.63;;;4.30;;
6280;SDS011;3173;48.204;11.612;2022-08-30T10:02:52;4.77;;;3.87;;
6280;SDS011;3173;48.204;11.612;2022-08-30T10:05:30;6.43;;;4.13;;
6280;SDS011;3173;48.204;11.612;2022-08-30T10:15:24;5.53;;;3.80;;
6280;SDS011;3173;48.204;11.612;2022-08-30T10:18:56;4.37;;;3.60;;
6280;SDS011;3173;48.204;11.612;2022-08-30T10:23:26;4.90;;;3.57;;
6280;SDS011;3173;48.204;11.612;2022-08-30T10:25:58;5.77;;;3.40;;
6280;SDS011;3173;48.204;11.612;2022-08-30T10:28:34;6.93;;;3.47;;
6280;SDS011;3173;48.204;11.612;2022-08-30T10:31:03;7.37;;;2.53;;
6280;SDS011;3173;48.204;11.612;2022-08-30T10:33:39;3.63;;;3.00;;
6280;SDS011;3173;48.204;11.612;2022-08-30T10:36:10;4.20;;;2.90;;
6280;SDS011;3173;48.204;11.612;2022-08-30T10:38:49;4.07;;;2.93;;
6280;SDS011;3173;48.204;11.612;2022-08-30T10:41:37;4.80;;;2.70;;
6280;SDS011;3173;48.204;11.612;2022-08-30T10:44:05;3.57;;;2.30;;
6280;SDS011;3173;48.204;11.612;2022-08-30T10:49:09;5.13;;;3.30;;
6280;SDS011;3173;48.204;11.612;2022-08-30T10:51:46;4.30;;;3.30;;
6280;SDS011;3173;48.204;11.612;2022-08-30T10:54:25;3.90;;;2.83;;
6280;SDS011;3173;48.204;11.612;2022-08-30T10:56:56;3.87;;;2.60;;
6280;SDS011;3173;48.204;11.612;2022-08-30T10:59:22;4.67;;;2.43;;
6280;SDS011;3173;48.204;11.612;2022-08-30T11:10:00;10.17;;;3.00;;
6280;SDS011;3173;48.204;11.612;2022-08-30T11:12:41;4.20;;;3.80;;
6280;SDS011;3173;48.204;11.612;2022-08-30T11:15:14;5.23;;;3.20;;
6280;SDS011;3173;48.204;11.612;2022-08-30T11:20:40;4.73;;;3.87;;
6280;SDS011;3173;48.204;11.612;2022-08-30T11:31:08;7.13;;;3.80;;
6280;SDS011;3173;48.204;11.612;2022-08-30T11:33:47;5.80;;;3.90;;
6280;SDS011;3173;48.204;11.612;2022-08-30T11:38:57;4.60;;;3.97;;
6280;SDS011;3173;48.204;11.612;2022-08-30T11:44:10;5.97;;;4.23;;
6280;SDS011;3173;48.204;11.612;2022-08-30T11:46:38;6.43;;;4.03;;
6280;SDS011;3173;48.204;11.612;2022-08-30T11:57:10;8.63;;;3.43;;
6280;SDS011;3173;48.204;11.612;2022-08-30T11:59:46;5.77;;;4.00;;
6280;SDS011;3173;48.204;11.612;2022-08-30T12:05:03;6.57;;;3.20;;
6280;SDS011;3173;48.204;11.612;2022-08-30T12:10:22;5.10;;;3.07;;
6280;SDS011;3173;48.204;11.612;2022-08-30T12:12:48;6.13;;;3.90;;
6280;SDS011;3173;48.204;11.612;2022-08-30T12:15:24;4.97;;;3.30;;
6280;SDS011;3173;48.204;11.612;2022-08-30T12:17:53;4.00;;;3.30;;
6280;SDS011;3173;48.204;11.612;2022-08-30T12:20:42;4.73;;;3.20;;
6280;SDS011;3173;48.204;11.612;2022-08-30T12:28:37;3.87;;;3.30;;
6280;SDS011;3173;48.204;11.612;2022-08-30T12:31:15;4.60;;;3.33;;
6280;SDS011;3173;48.204;11.612;2022-08-30T12:33:45;3.60;;;3.10;;
6280;SDS011;3173;48.204;11.612;2022-08-30T12:36:13;7.50;;;3.17;;
6280;SDS011;3173;48.204;11.612;2022-08-30T12:38:39;4.67;;;3.20;;
6280;SDS011;3173;48.204;11.612;2022-08-30T12:41:05;5.03;;;3.30;;
6280;SDS011;3173;48.204;11.612;2022-08-30T12:43:38;4.10;;;3.20;;
6280;SDS011;3173;48.204;11.612;2022-08-30T12:46:12;6.70;;;3.90;;
6280;SDS011;3173;48.204;11.612;2022-08-30T12:48:39;8.23;;;3.70;;
6280;SDS011;3173;48.204;11.612;2022-08-30T12:51:06;4.67;;;3.97;;
6280;SDS011;3173;48.204;11.612;2022-08-30T12:53:36;5.63;;;3.50;;
6280;SDS011;3173;48.204;11.612;2022-08-30T12:56:04;8.60;;;3.60;;
6280;SDS011;3173;48.204;11.612;2022-08-30T13:03:42;4.60;;;2.90;;
6280;SDS011;3173;48.204;11.612;2022-08-30T13:06:07;5.00;;;2.90;;
6280;SDS011;3173;48.204;11.612;2022-08-30T13:11:07;3.70;;;3.00;;
6280;SDS011;3173;48.204;11.612;2022-08-30T13:13:44;5.43;;;3.30;;
6280;SDS011;3173;48.204;11.612;2022-08-30T13:19:14;4.70;;;3.00;;
6280;SDS011;3173;48.204;11.612;2022-08-30T13:21:50;5.53;;;2.70;;
6280;SDS011;3173;48.204;11.612;2022-08-30T13:24:17;4.17;;;3.33;;
6280;SDS011;3173;48.204;11.612;2022-08-30T13:26:42;2.93;;;2.63;;
6280;SDS011;3173;48.204;11.612;2022-08-30T13:29:14;4.43;;;2.70;;
6280;SDS011;3173;48.204;11.612;2022-08-30T13:31:40;5.17;;;3.10;;
6280;SDS011;3173;48.204;11.612;2022-08-30T13:34:06;3.63;;;2.70;;
6280;SDS011;3173;48.204;11.612;2022-08-30T13:36:33;4.20;;;2.70;;
6280;SDS011;3173;48.204;11.612;2022-08-30T13:39:00;4.00;;;3.03;;
6280;SDS011;3173;48.204;11.612;2022-08-30T13:41:26;4.53;;;3.00;;
6280;SDS011;3173;48.204;11.612;2022-08-30T13:43:53;4.13;;;3.07;;
6280;SDS011;3173;48.204;11.612;2022-08-30T13:46:19;3.10;;;2.80;;
6280;SDS011;3173;48.204;11.612;2022-08-30T13:48:46;3.23;;;2.93;;
6280;SDS011;3173;48.204;11.612;2022-08-30T13:51:13;6.90;;;3.30;;
6280;SDS011;3173;48.204;11.612;2022-08-30T13:53:39;10.03;;;3.57;;
6280;SDS011;3173;48.204;11.612;2022-08-30T13:56:05;5.77;;;3.10;;
6280;SDS011;3173;48.204;11.612;2022-08-30T13:58:31;4.23;;;2.83;;
6280;SDS011;3173;48.204;11.612;2022-08-30T14:00:58;5.43;;;2.80;;
6280;SDS011;3173;48.204;11.612;2022-08-30T14:03:24;7.20;;;3.23;;
6280;SDS011;3173;48.204;11.612;2022-08-30T14:05:50;3.50;;;2.83;;
6280;SDS011;3173;48.204;11.612;2022-08-30T14:08:18;3.93;;;2.83;;
6280;SDS011;3173;48.204;11.612;2022-08-30T14:10:44;4.10;;;3.03;;
6280;SDS011;3173;48.204;11.612;2022-08-30T14:13:10;4.70;;;3.10;;
6280;SDS011;3173;48.204;11.612;2022-08-30T14:15:36;5.13;;;2.77;;
6280;SDS011;3173;48.204;11.612;2022-08-30T14:18:03;6.67;;;3.30;;
6280;SDS011;3173;48.204;11.612;2022-08-30T14:20:29;3.77;;;3.10;;
6280;SDS011;3173;48.204;11.612;2022-08-30T14:22:55;5.73;;;3.33;;
6280;SDS011;3173;48.204;11.612;2022-08-30T14:25:21;4.13;;;3.00;;
6280;SDS011;3173;48.204;11.612;2022-08-30T14:27:48;4.73;;;2.90;;
6280;SDS011;3173;48.204;11.612;2022-08-30T14:30:14;4.30;;;2.90;;
6280;SDS011;3173;48.204;11.612;2022-08-30T14:32:39;4.47;;;3.23;;
6280;SDS011;3173;48.204;11.612;2022-08-30T14:35:06;3.50;;;3.00;;
6280;SDS011;3173;48.204;11.612;2022-08-30T14:37:32;3.20;;;2.67;;
6280;SDS011;3173;48.204;11.612;2022-08-30T14:39:58;4.50;;;2.80;;
6280;SDS011;3173;48.204;11.612;2022-08-30T14:42:24;3.80;;;2.70;;
6280;SDS011;3173;48.204;11.612;2022-08-30T14:44:49;6.93;;;3.33;;
6280;SDS011;3173;48.204;11.612;2022-08-30T14:47:16;5.10;;;3.33;;
6280;SDS011;3173;48.204;11.612;2022-08-30T14:49:41;3.30;;;2.90;;
6280;SDS011;3173;48.204;11.612;2022-08-30T14:52:07;5.03;;;2.73;;
6280;SDS011;3173;48.204;11.612;2022-08-30T14:54:33;3.70;;;3.07;;
6280;SDS011;3173;48.204;11.612;2022-08-30T14:56:59;2.80;;;2.27;;
6280;SDS011;3173;48.204;11.612;2022-08-30T14:59:25;7.27;;;2.90;;
6280;SDS011;3173;48.204;11.612;2022-08-30T15:01:52;3.20;;;2.90;;
6280;SDS011;3173;48.204;11.612;2022-08-30T15:04:18;4.43;;;2.77;;
6280;SDS011;3173;48.204;11.612;2022-08-30T15:06:45;5.90;;;3.37;;
6280;SDS011;3173;48.204;11.612;2022-08-30T15:09:12;5.47;;;3.30;;
6280;SDS011;3173;48.204;11.612;2022-08-30T15:11:39;5.77;;;3.03;;
6280;SDS011;3173;48.204;11.612;2022-08-30T15:14:07;3.83;;;3.33;;
6280;SDS011;3173;48.204;11.612;2022-08-30T15:16:33;6.93;;;3.57;;
6280;SDS011;3173;48.204;11.612;2022-08-30T15:19:00;3.83;;;3.10;;
6280;SDS011;3173;48.204;11.612;2022-08-30T15:21:30;6.00;;;3.53;;
6280;SDS011;3173;48.204;11.612;2022-08-30T15:23:56;5.17;;;3.40;;
6280;SDS011;3173;48.204;11.612;2022-08-30T15:26:23;7.00;;;3.30;;
6280;SDS011;3173;48.204;11.612;2022-08-30T15:28:49;4.67;;;2.60;;
6280;SDS011;3173;48.204;11.612;2022-08-30T15:31:19;5.80;;;3.30;;
6280;SDS011;3173;48.204;11.612;2022-08-30T15:33:45;4.50;;;3.13;;
6280;SDS011;3173;48.204;11.612;2022-08-30T15:36:11;4.63;;;3.20;;
6280;SDS011;3173;48.204;11.612;2022-08-30T15:38:37;7.53;;;3.40;;
6280;SDS011;3173;48.204;11.612;2022-08-30T15:41:05;5.43;;;3.40;;
6280;SDS011;3173;48.204;11.612;2022-08-30T15:43:32;5.63;;;3.97;;
6280;SDS011;3173;48.204;11.612;2022-08-30T15:46:04;5.67;;;3.50;;
6280;SDS011;3173;48.204;11.612;2022-08-30T15:48:33;9.93;;;3.80;;
6280;SDS011;3173;48.204;11.612;2022-08-30T15:50:59;5.47;;;3.27;;
6280;SDS011;3173;48.204;11.612;2022-08-30T15:53:25;4.57;;;3.33;;
6280;SDS011;3173;48.204;11.612;2022-08-30T15:55:51;5.73;;;3.03;;
6280;SDS011;3173;48.204;11.612;2022-08-30T15:58:17;3.50;;;3.20;;
6280;SDS011;3173;48.204;11.612;2022-08-30T16:00:43;4.17;;;3.50;;
6280;SDS011;3173;48.204;11.612;2022-08-30T16:03:09;8.00;;;3.47;;
6280;SDS011;3173;48.204;11.612;2022-08-30T16:05:35;5.40;;;3.50;;
6280;SDS011;3173;48.204;11.612;2022-08-30T16:08:01;5.60;;;3.83;;
6280;SDS011;3173;48.204;11.612;2022-08-30T16:10:27;6.03;;;3.03;;
6280;SDS011;3173;48.204;11.612;2022-08-30T16:12:53;3.40;;;2.90;;
6280;SDS011;3173;48.204;11.612;2022-08-30T16:15:19;10.60;;;3.30;;
6280;SDS011;3173;48.204;11.612;2022-08-30T16:17:45;7.00;;;3.37;;
6280;SDS011;3173;48.204;11.612;2022-08-30T16:20:11;5.67;;;3.87;;
6280;SDS011;3173;48.204;11.612;2022-08-30T16:22:37;5.63;;;3.03;;
6280;SDS011;3173;48.204;11.612;2022-08-30T16:25:03;10.50;;;3.57;;
6280;SDS011;3173;48.204;11.612;2022-08-30T16:27:29;4.43;;;3.20;;